AFR609 SBFZ-SOCA
Flight info
| Callsign | AFR609 |
|---|---|
| Flight time | 2h 29m |
| Altitude | 36000 |
| Route | ISUPI UZ81 BEL UA555 ALDIX ALDIX1S |
| Aircraft | A320/M-SDE2E3FGIJ1RWY/HB1 |
Departure
| Time | 2026-04-28 15:01 |
|---|---|
| Airport | Pinto Martins International Airport (SBFZ) |
Arrival
| Time | 2026-04-28 17:30 |
|---|---|
| Airport | Cayenne – Félix Eboué Airport (SOCA) |
| Time | Latitude | Longitude | Altitude | Speed | Heading |
|---|---|---|---|---|---|
| 2026-04-28 14:24 | -3.77778 | -38.54187 | 82 ft | 0 kts | 148° |
| 2026-04-28 14:46 | -3.77773 | -38.54190 | 82 ft | 4 kts | 147° |
| 2026-04-28 14:46 | -3.77752 | -38.54206 | 87 ft | 4 kts | 136° |
| 2026-04-28 14:46 | -3.77733 | -38.54226 | 85 ft | 4 kts | 129° |
| 2026-04-28 14:46 | -3.77716 | -38.54246 | 82 ft | 4 kts | 140° |
| 2026-04-28 14:47 | -3.77698 | -38.54258 | 86 ft | 4 kts | 153° |
| 2026-04-28 14:47 | -3.77673 | -38.54268 | 87 ft | 4 kts | 170° |
| 2026-04-28 14:47 | -3.77647 | -38.54268 | 86 ft | 4 kts | 201° |
| 2026-04-28 14:47 | -3.77632 | -38.54257 | 86 ft | 3 kts | 279° |
| 2026-04-28 14:48 | -3.77634 | -38.54249 | 85 ft | 0 kts | 285° |
| 2026-04-28 14:52 | -3.77634 | -38.54250 | 85 ft | 1 kts | 285° |
| 2026-04-28 14:52 | -3.77624 | -38.54291 | 82 ft | 10 kts | 283° |
| 2026-04-28 14:53 | -3.77596 | -38.54360 | 83 ft | 11 kts | 305° |
| 2026-04-28 14:53 | -3.77538 | -38.54378 | 82 ft | 10 kts | 10° |
| 2026-04-28 14:53 | -3.77474 | -38.54395 | 82 ft | 10 kts | 344° |
| 2026-04-28 14:53 | -3.77412 | -38.54383 | 84 ft | 9 kts | 24° |
| 2026-04-28 14:54 | -3.77382 | -38.54370 | 86 ft | 0 kts | 23° |
| 2026-04-28 14:54 | -3.77355 | -38.54362 | 86 ft | 8 kts | 3° |
| 2026-04-28 14:55 | -3.77331 | -38.54422 | 85 ft | 11 kts | 280° |
| 2026-04-28 14:55 | -3.77316 | -38.54488 | 87 ft | 7 kts | 317° |
| 2026-04-28 14:55 | -3.77308 | -38.54480 | 88 ft | 1 kts | 86° |
| 2026-04-28 14:55 | -3.77308 | -38.54479 | 88 ft | 0 kts | 86° |
| 2026-04-28 15:00 | -3.77318 | -38.54428 | 89 ft | 32 kts | 106° |
| 2026-04-28 15:00 | -3.77443 | -38.53963 | 88 ft | 102 kts | 105° |
| 2026-04-28 15:00 | -3.77678 | -38.53087 | 83 ft | 156 kts | 105° |
| 2026-04-28 15:00 | -3.77978 | -38.51933 | 366 ft | 177 kts | 105° |
| 2026-04-28 15:01 | -3.78309 | -38.50748 | 1025 ft | 176 kts | 108° |
| 2026-04-28 15:01 | -3.78642 | -38.49582 | 1746 ft | 173 kts | 108° |
| 2026-04-28 15:01 | -3.78902 | -38.48411 | 2410 ft | 173 kts | 90° |
| 2026-04-28 15:01 | -3.78442 | -38.47312 | 2949 ft | 178 kts | 47° |
| 2026-04-28 15:02 | -3.77345 | -38.46715 | 3363 ft | 191 kts | 10° |
| 2026-04-28 15:02 | -3.75987 | -38.46976 | 3555 ft | 215 kts | 329° |
| 2026-04-28 15:02 | -3.74676 | -38.47865 | 3724 ft | 240 kts | 325° |
| 2026-04-28 15:02 | -3.73244 | -38.48878 | 4020 ft | 264 kts | 325° |
| 2026-04-28 15:03 | -3.71695 | -38.49977 | 4491 ft | 280 kts | 325° |
| 2026-04-28 15:03 | -3.70092 | -38.51113 | 5209 ft | 285 kts | 325° |
| 2026-04-28 15:03 | -3.68462 | -38.52263 | 5987 ft | 288 kts | 326° |
| 2026-04-28 15:03 | -3.66818 | -38.53421 | 6735 ft | 291 kts | 323° |
| 2026-04-28 15:04 | -3.65357 | -38.54831 | 7452 ft | 294 kts | 308° |
| 2026-04-28 15:04 | -3.64304 | -38.56587 | 8164 ft | 296 kts | 292° |
| 2026-04-28 15:04 | -3.63514 | -38.58501 | 8903 ft | 298 kts | 292° |
| 2026-04-28 15:04 | -3.62715 | -38.60422 | 9643 ft | 300 kts | 292° |
| 2026-04-28 15:05 | -3.61901 | -38.62366 | 10233 ft | 307 kts | 292° |
| 2026-04-28 15:05 | -3.61043 | -38.64412 | 10376 ft | 331 kts | 292° |
| 2026-04-28 15:05 | -3.60124 | -38.66596 | 10644 ft | 347 kts | 292° |
| 2026-04-28 15:05 | -3.59177 | -38.68851 | 11131 ft | 355 kts | 292° |
| 2026-04-28 15:06 | -3.58220 | -38.71138 | 11764 ft | 357 kts | 292° |
| 2026-04-28 15:06 | -3.57259 | -38.73437 | 12443 ft | 359 kts | 292° |
| 2026-04-28 15:06 | -3.56292 | -38.75749 | 13039 ft | 363 kts | 293° |
| 2026-04-28 15:06 | -3.55312 | -38.78093 | 13601 ft | 367 kts | 294° |
| 2026-04-28 15:07 | -3.54321 | -38.80465 | 14131 ft | 371 kts | 294° |
| 2026-04-28 15:07 | -3.53319 | -38.82862 | 14633 ft | 375 kts | 294° |
| 2026-04-28 15:07 | -3.52307 | -38.85278 | 15144 ft | 378 kts | 294° |
| 2026-04-28 15:07 | -3.51285 | -38.87715 | 15626 ft | 382 kts | 294° |
| 2026-04-28 15:08 | -3.50251 | -38.90181 | 16112 ft | 386 kts | 294° |
| 2026-04-28 15:08 | -3.49207 | -38.92668 | 16590 ft | 390 kts | 294° |
| 2026-04-28 15:08 | -3.48158 | -38.95181 | 17056 ft | 394 kts | 294° |
| 2026-04-28 15:08 | -3.47100 | -38.97723 | 17510 ft | 398 kts | 294° |
| 2026-04-28 15:09 | -3.46029 | -39.00291 | 17971 ft | 402 kts | 294° |
| 2026-04-28 15:09 | -3.44944 | -39.02880 | 18396 ft | 405 kts | 295° |
| 2026-04-28 15:09 | -3.43845 | -39.05492 | 18808 ft | 409 kts | 294° |
| 2026-04-28 15:09 | -3.43113 | -39.07232 | 19067 ft | 411 kts | 294° |
| 2026-04-28 15:10 | -3.41622 | -39.10778 | 19608 ft | 415 kts | 294° |
| 2026-04-28 15:10 | -3.40504 | -39.13451 | 20032 ft | 417 kts | 294° |
| 2026-04-28 15:10 | -3.39386 | -39.16133 | 20524 ft | 418 kts | 294° |
| 2026-04-28 15:10 | -3.38263 | -39.18825 | 20962 ft | 420 kts | 294° |
| 2026-04-28 15:11 | -3.37135 | -39.21532 | 21385 ft | 423 kts | 294° |
| 2026-04-28 15:11 | -3.35997 | -39.24257 | 21802 ft | 425 kts | 294° |
| 2026-04-28 15:11 | -3.34850 | -39.26996 | 22216 ft | 428 kts | 294° |
| 2026-04-28 15:11 | -3.33693 | -39.29749 | 22601 ft | 431 kts | 294° |
| 2026-04-28 15:12 | -3.32527 | -39.32522 | 22989 ft | 434 kts | 293° |
| 2026-04-28 15:12 | -3.31357 | -39.35312 | 23353 ft | 436 kts | 293° |
| 2026-04-28 15:12 | -3.30185 | -39.38117 | 23742 ft | 437 kts | 293° |
| 2026-04-28 15:12 | -3.29227 | -39.41006 | 24079 ft | 438 kts | 283° |
| 2026-04-28 15:13 | -3.28773 | -39.44024 | 24392 ft | 440 kts | 273° |
| 2026-04-28 15:13 | -3.28827 | -39.47088 | 24683 ft | 442 kts | 265° |
| 2026-04-28 15:13 | -3.29062 | -39.50166 | 24973 ft | 444 kts | 265° |
| 2026-04-28 15:13 | -3.29292 | -39.53256 | 25262 ft | 446 kts | 265° |
| 2026-04-28 15:14 | -3.29519 | -39.56360 | 25568 ft | 448 kts | 265° |
| 2026-04-28 15:14 | -3.29744 | -39.59474 | 25847 ft | 450 kts | 265° |
| 2026-04-28 15:14 | -3.29969 | -39.62604 | 26128 ft | 452 kts | 265° |
| 2026-04-28 15:14 | -3.30197 | -39.65741 | 26408 ft | 453 kts | 265° |
| 2026-04-28 15:15 | -3.30425 | -39.68894 | 26671 ft | 455 kts | 265° |
| 2026-04-28 15:15 | -3.30651 | -39.72017 | 26933 ft | 457 kts | 265° |
| 2026-04-28 15:15 | -3.30885 | -39.75241 | 27202 ft | 459 kts | 265° |
| 2026-04-28 15:15 | -3.31117 | -39.78386 | 27452 ft | 461 kts | 265° |
| 2026-04-28 15:16 | -3.31358 | -39.81635 | 27708 ft | 463 kts | 265° |
| 2026-04-28 15:16 | -3.31594 | -39.84809 | 27949 ft | 465 kts | 265° |
| 2026-04-28 15:16 | -3.31836 | -39.88082 | 28197 ft | 466 kts | 265° |
| 2026-04-28 15:16 | -3.32071 | -39.91279 | 28452 ft | 468 kts | 265° |
| 2026-04-28 15:17 | -3.32305 | -39.94533 | 28685 ft | 470 kts | 265° |
| 2026-04-28 15:17 | -3.32537 | -39.97801 | 28922 ft | 471 kts | 265° |
| 2026-04-28 15:17 | -3.32771 | -40.01077 | 29156 ft | 473 kts | 265° |
| 2026-04-28 15:17 | -3.33008 | -40.04362 | 29387 ft | 474 kts | 265° |
| 2026-04-28 15:18 | -3.33249 | -40.07658 | 29624 ft | 476 kts | 265° |
| 2026-04-28 15:18 | -3.33493 | -40.10964 | 29849 ft | 477 kts | 265° |
| 2026-04-28 15:18 | -3.33736 | -40.14275 | 30055 ft | 478 kts | 265° |
| 2026-04-28 15:18 | -3.33980 | -40.17600 | 30230 ft | 480 kts | 265° |
| 2026-04-28 15:19 | -3.34224 | -40.20937 | 30400 ft | 481 kts | 265° |
| 2026-04-28 15:19 | -3.34468 | -40.24278 | 30567 ft | 483 kts | 265° |
| 2026-04-28 15:19 | -3.34710 | -40.27638 | 30715 ft | 484 kts | 265° |
| 2026-04-28 15:19 | -3.34947 | -40.30995 | 30937 ft | 484 kts | 265° |
| 2026-04-28 15:20 | -3.35184 | -40.34353 | 31173 ft | 484 kts | 265° |
| 2026-04-28 15:20 | -3.35423 | -40.37708 | 31409 ft | 483 kts | 265° |
| 2026-04-28 15:20 | -3.35664 | -40.41060 | 31639 ft | 483 kts | 265° |
| 2026-04-28 15:20 | -3.35910 | -40.44413 | 31871 ft | 483 kts | 265° |
| 2026-04-28 15:21 | -3.36157 | -40.47763 | 32099 ft | 483 kts | 265° |
| 2026-04-28 15:21 | -3.36316 | -40.51120 | 32302 ft | 483 kts | 271° |
| 2026-04-28 15:21 | -3.36014 | -40.54468 | 32510 ft | 483 kts | 280° |
| 2026-04-28 15:21 | -3.35343 | -40.57764 | 32726 ft | 484 kts | 282° |
| 2026-04-28 15:22 | -3.34658 | -40.61059 | 32948 ft | 484 kts | 282° |
| 2026-04-28 15:22 | -3.33979 | -40.64354 | 33181 ft | 484 kts | 282° |
| 2026-04-28 15:22 | -3.33304 | -40.67648 | 33410 ft | 484 kts | 282° |
| 2026-04-28 15:22 | -3.32627 | -40.70945 | 33631 ft | 484 kts | 282° |
| 2026-04-28 15:23 | -3.31948 | -40.74249 | 33831 ft | 485 kts | 282° |
| 2026-04-28 15:23 | -3.31271 | -40.77554 | 34038 ft | 485 kts | 282° |
| 2026-04-28 15:23 | -3.30595 | -40.80864 | 34235 ft | 485 kts | 282° |
| 2026-04-28 15:23 | -3.29919 | -40.84172 | 34435 ft | 485 kts | 282° |
| 2026-04-28 15:24 | -3.29238 | -40.87477 | 34632 ft | 485 kts | 282° |
| 2026-04-28 15:24 | -3.28554 | -40.90781 | 34817 ft | 485 kts | 282° |
| 2026-04-28 15:24 | -3.27867 | -40.94086 | 34995 ft | 485 kts | 282° |
| 2026-04-28 15:24 | -3.27180 | -40.97391 | 35167 ft | 485 kts | 282° |
| 2026-04-28 15:25 | -3.26497 | -41.00698 | 35344 ft | 485 kts | 282° |
| 2026-04-28 15:25 | -3.25814 | -41.04001 | 35523 ft | 485 kts | 282° |
| 2026-04-28 15:25 | -3.25129 | -41.07301 | 35693 ft | 485 kts | 283° |
| 2026-04-28 15:25 | -3.24443 | -41.10604 | 35865 ft | 484 kts | 283° |
| 2026-04-28 15:26 | -3.23761 | -41.13902 | 35961 ft | 484 kts | 283° |
| 2026-04-28 15:26 | -3.22403 | -41.20482 | 35983 ft | 482 kts | 283° |
| 2026-04-28 15:27 | -3.21043 | -41.27051 | 35981 ft | 482 kts | 283° |
| 2026-04-28 15:27 | -3.19678 | -41.33616 | 35981 ft | 482 kts | 283° |
| 2026-04-28 15:28 | -3.18316 | -41.40181 | 35980 ft | 482 kts | 283° |
| 2026-04-28 15:28 | -3.16962 | -41.46742 | 35981 ft | 482 kts | 283° |
| 2026-04-28 15:29 | -3.15604 | -41.53312 | 35981 ft | 482 kts | 283° |
| 2026-04-28 15:29 | -3.14244 | -41.59880 | 35973 ft | 482 kts | 283° |
| 2026-04-28 15:30 | -3.12880 | -41.66454 | 35971 ft | 482 kts | 283° |
| 2026-04-28 15:30 | -3.11510 | -41.73026 | 35970 ft | 482 kts | 283° |
| 2026-04-28 15:31 | -3.10153 | -41.79596 | 35969 ft | 482 kts | 283° |
| 2026-04-28 15:31 | -3.08810 | -41.86172 | 35971 ft | 482 kts | 283° |
| 2026-04-28 15:32 | -3.07480 | -41.92751 | 35975 ft | 482 kts | 282° |
| 2026-04-28 15:32 | -3.06147 | -41.99327 | 35979 ft | 482 kts | 283° |
| 2026-04-28 15:33 | -3.04807 | -42.05901 | 35984 ft | 482 kts | 283° |
| 2026-04-28 15:33 | -3.03463 | -42.12470 | 35986 ft | 482 kts | 283° |
| 2026-04-28 15:34 | -3.02119 | -42.19044 | 35988 ft | 482 kts | 283° |
| 2026-04-28 15:34 | -3.00741 | -42.25608 | 35988 ft | 482 kts | 283° |
| 2026-04-28 15:35 | -2.99343 | -42.32171 | 35992 ft | 482 kts | 283° |
| 2026-04-28 15:35 | -2.97269 | -42.42026 | 35995 ft | 482 kts | 283° |
| 2026-04-28 15:36 | -2.95891 | -42.48591 | 35997 ft | 482 kts | 283° |
| 2026-04-28 15:36 | -2.94509 | -42.55148 | 35997 ft | 482 kts | 283° |
| 2026-04-28 15:37 | -2.93123 | -42.61704 | 35995 ft | 481 kts | 283° |
| 2026-04-28 15:37 | -2.91990 | -42.67150 | 35994 ft | 481 kts | 283° |
| 2026-04-28 15:38 | -2.90618 | -42.73701 | 35996 ft | 481 kts | 283° |
| 2026-04-28 15:38 | -2.89235 | -42.80246 | 35996 ft | 481 kts | 283° |
| 2026-04-28 15:39 | -2.87849 | -42.86788 | 35996 ft | 481 kts | 283° |
| 2026-04-28 15:39 | -2.86474 | -42.93328 | 35998 ft | 480 kts | 283° |
| 2026-04-28 15:40 | -2.85095 | -42.99870 | 35999 ft | 480 kts | 283° |
| 2026-04-28 15:40 | -2.83712 | -43.06405 | 35998 ft | 480 kts | 283° |
| 2026-04-28 15:41 | -2.82330 | -43.12944 | 36003 ft | 480 kts | 283° |
| 2026-04-28 15:41 | -2.80955 | -43.19477 | 36007 ft | 480 kts | 283° |
| 2026-04-28 15:42 | -2.79574 | -43.26010 | 36009 ft | 480 kts | 283° |
| 2026-04-28 15:42 | -2.78193 | -43.32539 | 36011 ft | 480 kts | 283° |
| 2026-04-28 15:43 | -2.76818 | -43.39067 | 36008 ft | 479 kts | 283° |
| 2026-04-28 15:43 | -2.75443 | -43.45581 | 36010 ft | 478 kts | 283° |
| 2026-04-28 15:44 | -2.74066 | -43.52089 | 36008 ft | 478 kts | 283° |
| 2026-04-28 15:44 | -2.72696 | -43.58583 | 36006 ft | 477 kts | 283° |
| 2026-04-28 15:45 | -2.71330 | -43.65075 | 36005 ft | 477 kts | 283° |
| 2026-04-28 15:45 | -2.69961 | -43.71561 | 36002 ft | 476 kts | 283° |
| 2026-04-28 15:46 | -2.68590 | -43.78047 | 36002 ft | 477 kts | 283° |
| 2026-04-28 15:46 | -2.67223 | -43.84532 | 35997 ft | 476 kts | 283° |
| 2026-04-28 15:47 | -2.65859 | -43.91007 | 36000 ft | 476 kts | 283° |
| 2026-04-28 15:47 | -2.64502 | -43.97483 | 36005 ft | 476 kts | 283° |
| 2026-04-28 15:48 | -2.63141 | -44.03961 | 36007 ft | 476 kts | 283° |
| 2026-04-28 15:48 | -2.61776 | -44.10433 | 35996 ft | 476 kts | 283° |
| 2026-04-28 15:49 | -2.60413 | -44.16908 | 35988 ft | 475 kts | 283° |
| 2026-04-28 15:49 | -2.59056 | -44.23371 | 35983 ft | 475 kts | 283° |
| 2026-04-28 15:50 | -2.57465 | -44.29771 | 35986 ft | 474 kts | 287° |
| 2026-04-28 15:50 | -2.55585 | -44.36087 | 35991 ft | 474 kts | 288° |
| 2026-04-28 15:51 | -2.53693 | -44.42402 | 35998 ft | 475 kts | 288° |
| 2026-04-28 15:51 | -2.51887 | -44.48748 | 36002 ft | 475 kts | 287° |
| 2026-04-28 15:52 | -2.50128 | -44.55066 | 36007 ft | 474 kts | 287° |
| 2026-04-28 15:52 | -2.48348 | -44.61420 | 36010 ft | 475 kts | 287° |
| 2026-04-28 15:53 | -2.46548 | -44.67771 | 36013 ft | 475 kts | 287° |
| 2026-04-28 15:53 | -2.44742 | -44.74123 | 36011 ft | 475 kts | 287° |
| 2026-04-28 15:54 | -2.42940 | -44.80480 | 36010 ft | 475 kts | 287° |
| 2026-04-28 15:54 | -2.41148 | -44.86836 | 36015 ft | 475 kts | 287° |
| 2026-04-28 15:55 | -2.39350 | -44.93183 | 36016 ft | 474 kts | 287° |
| 2026-04-28 15:55 | -2.37550 | -44.99524 | 36017 ft | 474 kts | 287° |
| 2026-04-28 15:56 | -2.35754 | -45.05859 | 36017 ft | 474 kts | 287° |
| 2026-04-28 15:56 | -2.33957 | -45.12192 | 36015 ft | 473 kts | 287° |
| 2026-04-28 15:57 | -2.32169 | -45.18525 | 36012 ft | 473 kts | 287° |
| 2026-04-28 15:57 | -2.30382 | -45.24854 | 36013 ft | 473 kts | 287° |
| 2026-04-28 15:58 | -2.28589 | -45.31180 | 36012 ft | 472 kts | 287° |
| 2026-04-28 15:58 | -2.26796 | -45.37492 | 36012 ft | 472 kts | 287° |
| 2026-04-28 15:59 | -2.25004 | -45.43802 | 36009 ft | 472 kts | 287° |
| 2026-04-28 15:59 | -2.23220 | -45.50117 | 36010 ft | 472 kts | 287° |
| 2026-04-28 16:00 | -2.21434 | -45.56428 | 36009 ft | 472 kts | 287° |
| 2026-04-28 16:00 | -2.19638 | -45.62734 | 36012 ft | 471 kts | 287° |
| 2026-04-28 16:01 | -2.17843 | -45.69036 | 36013 ft | 471 kts | 286° |
| 2026-04-28 16:01 | -2.16059 | -45.75337 | 36010 ft | 471 kts | 286° |
| 2026-04-28 16:02 | -2.14282 | -45.81638 | 36012 ft | 471 kts | 286° |
| 2026-04-28 16:02 | -2.12505 | -45.87934 | 36014 ft | 470 kts | 286° |
| 2026-04-28 16:03 | -2.10716 | -45.94224 | 36013 ft | 470 kts | 286° |
| 2026-04-28 16:03 | -2.08926 | -46.00505 | 36014 ft | 470 kts | 286° |
| 2026-04-28 16:04 | -2.07136 | -46.06794 | 36014 ft | 470 kts | 286° |
| 2026-04-28 16:04 | -2.05350 | -46.13083 | 36016 ft | 470 kts | 286° |
| 2026-04-28 16:05 | -2.03562 | -46.19377 | 36013 ft | 470 kts | 287° |
| 2026-04-28 16:05 | -2.01776 | -46.25665 | 36010 ft | 470 kts | 287° |
| 2026-04-28 16:06 | -1.99989 | -46.31956 | 36009 ft | 470 kts | 287° |
| 2026-04-28 16:06 | -1.98199 | -46.38239 | 36004 ft | 470 kts | 287° |
| 2026-04-28 16:07 | -1.96417 | -46.44525 | 36007 ft | 470 kts | 287° |
| 2026-04-28 16:08 | -1.93732 | -46.53954 | 36018 ft | 470 kts | 287° |
| 2026-04-28 16:08 | -1.91940 | -46.60245 | 36015 ft | 470 kts | 287° |
| 2026-04-28 16:09 | -1.89255 | -46.69676 | 36015 ft | 470 kts | 287° |
| 2026-04-28 16:10 | -1.86589 | -46.79062 | 36011 ft | 470 kts | 287° |
| 2026-04-28 16:10 | -1.83892 | -46.88532 | 36012 ft | 470 kts | 287° |
| 2026-04-28 16:11 | -1.80334 | -47.01048 | 36011 ft | 469 kts | 287° |
| 2026-04-28 16:12 | -1.77661 | -47.10454 | 36009 ft | 469 kts | 287° |
| 2026-04-28 16:13 | -1.74970 | -47.19857 | 36005 ft | 469 kts | 287° |
| 2026-04-28 16:14 | -1.71401 | -47.32401 | 36010 ft | 469 kts | 287° |
| 2026-04-28 16:15 | -1.67826 | -47.44947 | 36013 ft | 469 kts | 286° |
| 2026-04-28 16:15 | -1.66034 | -47.51225 | 36011 ft | 470 kts | 286° |
| 2026-04-28 16:16 | -1.63347 | -47.60647 | 36014 ft | 470 kts | 286° |
| 2026-04-28 16:17 | -1.60666 | -47.70056 | 36018 ft | 469 kts | 286° |
| 2026-04-28 16:17 | -1.58878 | -47.76315 | 36016 ft | 468 kts | 286° |
| 2026-04-28 16:18 | -1.57094 | -47.82575 | 36016 ft | 468 kts | 286° |
| 2026-04-28 16:18 | -1.55315 | -47.88831 | 36019 ft | 468 kts | 286° |
| 2026-04-28 16:19 | -1.53525 | -47.95079 | 36021 ft | 468 kts | 286° |
| 2026-04-28 16:19 | -1.51740 | -48.01325 | 36018 ft | 467 kts | 286° |
| 2026-04-28 16:20 | -1.49957 | -48.07566 | 36019 ft | 467 kts | 286° |
| 2026-04-28 16:20 | -1.48175 | -48.13802 | 36018 ft | 467 kts | 286° |
| 2026-04-28 16:21 | -1.46391 | -48.20035 | 36017 ft | 466 kts | 286° |
| 2026-04-28 16:21 | -1.44613 | -48.26258 | 36016 ft | 466 kts | 286° |
| 2026-04-28 16:22 | -1.42836 | -48.32482 | 36014 ft | 465 kts | 286° |
| 2026-04-28 16:22 | -1.41059 | -48.38698 | 36005 ft | 465 kts | 286° |
| 2026-04-28 16:23 | -1.39346 | -48.43790 | 35944 ft | 465 kts | 297° |
| 2026-04-28 16:23 | -1.35670 | -48.49031 | 35941 ft | 461 kts | 317° |
| 2026-04-28 16:24 | -1.30537 | -48.52805 | 35940 ft | 458 kts | 329° |
| 2026-04-28 16:24 | -1.25123 | -48.56182 | 35951 ft | 459 kts | 329° |
| 2026-04-28 16:25 | -1.19714 | -48.59579 | 35965 ft | 459 kts | 329° |
| 2026-04-28 16:25 | -1.14307 | -48.62979 | 35987 ft | 459 kts | 329° |
| 2026-04-28 16:26 | -1.08895 | -48.66383 | 35992 ft | 460 kts | 329° |
| 2026-04-28 16:26 | -1.03475 | -48.69776 | 35995 ft | 460 kts | 329° |
| 2026-04-28 16:27 | -0.98047 | -48.73171 | 35997 ft | 460 kts | 329° |
| 2026-04-28 16:28 | -0.89916 | -48.78279 | 35994 ft | 460 kts | 329° |
| 2026-04-28 16:28 | -0.84488 | -48.81686 | 36001 ft | 461 kts | 329° |
| 2026-04-28 16:29 | -0.76345 | -48.86784 | 36000 ft | 461 kts | 329° |
| 2026-04-28 16:30 | -0.68196 | -48.91892 | 36001 ft | 461 kts | 329° |
| 2026-04-28 16:30 | -0.62758 | -48.95296 | 36003 ft | 461 kts | 329° |
| 2026-04-28 16:31 | -0.57327 | -48.98706 | 36007 ft | 461 kts | 330° |
| 2026-04-28 16:31 | -0.51890 | -49.02120 | 36003 ft | 462 kts | 330° |
| 2026-04-28 16:32 | -0.46444 | -49.05533 | 36004 ft | 462 kts | 330° |
| 2026-04-28 16:32 | -0.38269 | -49.10653 | 35998 ft | 462 kts | 330° |
| 2026-04-28 16:33 | -0.33737 | -49.13491 | 36010 ft | 463 kts | 330° |
| 2026-04-28 16:33 | -0.27364 | -49.17485 | 36012 ft | 462 kts | 330° |
| 2026-04-28 16:34 | -0.21922 | -49.20902 | 36015 ft | 462 kts | 330° |
| 2026-04-28 16:34 | -0.16481 | -49.24322 | 36017 ft | 462 kts | 330° |
| 2026-04-28 16:35 | -0.11035 | -49.27734 | 36014 ft | 462 kts | 330° |
| 2026-04-28 16:35 | -0.05591 | -49.31146 | 36014 ft | 462 kts | 330° |
| 2026-04-28 16:36 | -0.00146 | -49.34555 | 36023 ft | 462 kts | 330° |
| 2026-04-28 16:36 | 0.05263 | -49.37951 | 36007 ft | 463 kts | 330° |
| 2026-04-28 16:37 | 0.10717 | -49.41369 | 36006 ft | 463 kts | 330° |
| 2026-04-28 16:38 | 0.18910 | -49.46498 | 36005 ft | 464 kts | 330° |
| 2026-04-28 16:38 | 0.24375 | -49.49925 | 36009 ft | 464 kts | 330° |
| 2026-04-28 16:39 | 0.29842 | -49.53353 | 36007 ft | 464 kts | 330° |
| 2026-04-28 16:39 | 0.35315 | -49.56780 | 36007 ft | 464 kts | 330° |
| 2026-04-28 16:40 | 0.40785 | -49.60211 | 36010 ft | 465 kts | 330° |
| 2026-04-28 16:40 | 0.46260 | -49.63647 | 36010 ft | 465 kts | 330° |
| 2026-04-28 16:41 | 0.51738 | -49.67080 | 36011 ft | 465 kts | 330° |
| 2026-04-28 16:41 | 0.57218 | -49.70510 | 36013 ft | 465 kts | 330° |
| 2026-04-28 16:42 | 0.62694 | -49.73948 | 36014 ft | 465 kts | 330° |
| 2026-04-28 16:42 | 0.68168 | -49.77384 | 36017 ft | 465 kts | 330° |
| 2026-04-28 16:43 | 0.73643 | -49.80814 | 36018 ft | 464 kts | 330° |
| 2026-04-28 16:43 | 0.79114 | -49.84242 | 36018 ft | 464 kts | 330° |
| 2026-04-28 16:44 | 0.84583 | -49.87675 | 36021 ft | 464 kts | 330° |
| 2026-04-28 16:44 | 0.90055 | -49.91103 | 36019 ft | 464 kts | 330° |
| 2026-04-28 16:45 | 0.95523 | -49.94537 | 36018 ft | 464 kts | 330° |
| 2026-04-28 16:45 | 1.00991 | -49.97968 | 36010 ft | 464 kts | 330° |
| 2026-04-28 16:46 | 1.06464 | -50.01394 | 36015 ft | 464 kts | 330° |
| 2026-04-28 16:46 | 1.11933 | -50.04818 | 36015 ft | 464 kts | 330° |
| 2026-04-28 16:47 | 1.17398 | -50.08252 | 36014 ft | 464 kts | 329° |
| 2026-04-28 16:47 | 1.22867 | -50.11671 | 36011 ft | 464 kts | 329° |
| 2026-04-28 16:48 | 1.28337 | -50.15100 | 36008 ft | 464 kts | 329° |
| 2026-04-28 16:48 | 1.33800 | -50.18533 | 36008 ft | 464 kts | 329° |
| 2026-04-28 16:49 | 1.39270 | -50.21965 | 36012 ft | 464 kts | 329° |
| 2026-04-28 16:49 | 1.44732 | -50.25394 | 36014 ft | 463 kts | 329° |
| 2026-04-28 16:50 | 1.50191 | -50.28815 | 36013 ft | 463 kts | 329° |
| 2026-04-28 16:50 | 1.55652 | -50.32243 | 36013 ft | 463 kts | 329° |
| 2026-04-28 16:51 | 1.61113 | -50.35673 | 36013 ft | 464 kts | 329° |
| 2026-04-28 16:51 | 1.66576 | -50.39101 | 36012 ft | 464 kts | 329° |
| 2026-04-28 16:52 | 1.72040 | -50.42524 | 36010 ft | 464 kts | 329° |
| 2026-04-28 16:52 | 1.77508 | -50.45947 | 36015 ft | 464 kts | 329° |
| 2026-04-28 16:53 | 1.82968 | -50.49374 | 36016 ft | 463 kts | 329° |
| 2026-04-28 16:53 | 1.88421 | -50.52807 | 36015 ft | 463 kts | 329° |
| 2026-04-28 16:54 | 1.93872 | -50.56238 | 36018 ft | 463 kts | 329° |
| 2026-04-28 16:54 | 1.99324 | -50.59664 | 36018 ft | 463 kts | 329° |
| 2026-04-28 16:55 | 2.04742 | -50.63059 | 36020 ft | 463 kts | 329° |
| 2026-04-28 16:55 | 2.10192 | -50.66484 | 36014 ft | 463 kts | 329° |
| 2026-04-28 16:56 | 2.15648 | -50.69903 | 36014 ft | 463 kts | 329° |
| 2026-04-28 16:56 | 2.21090 | -50.73350 | 36016 ft | 463 kts | 328° |
| 2026-04-28 16:57 | 2.26497 | -50.76852 | 36012 ft | 463 kts | 328° |
| 2026-04-28 16:57 | 2.31898 | -50.80359 | 36014 ft | 463 kts | 328° |
| 2026-04-28 16:58 | 2.37308 | -50.83860 | 36019 ft | 463 kts | 328° |
| 2026-04-28 16:58 | 2.42723 | -50.87351 | 36017 ft | 463 kts | 328° |
| 2026-04-28 16:59 | 2.48139 | -50.90841 | 36016 ft | 463 kts | 328° |
| 2026-04-28 16:59 | 2.53552 | -50.94337 | 36015 ft | 463 kts | 328° |
| 2026-04-28 17:00 | 2.58960 | -50.97835 | 36017 ft | 463 kts | 328° |
| 2026-04-28 17:00 | 2.64373 | -51.01334 | 36021 ft | 463 kts | 328° |
| 2026-04-28 17:01 | 2.69783 | -51.04827 | 36018 ft | 463 kts | 328° |
| 2026-04-28 17:01 | 2.75199 | -51.08329 | 36023 ft | 463 kts | 328° |
| 2026-04-28 17:02 | 2.80609 | -51.11826 | 36024 ft | 463 kts | 328° |
| 2026-04-28 17:02 | 2.86017 | -51.15325 | 36021 ft | 463 kts | 328° |
| 2026-04-28 17:03 | 2.94136 | -51.20571 | 36023 ft | 463 kts | 328° |
| 2026-04-28 17:03 | 2.99553 | -51.24064 | 36020 ft | 463 kts | 328° |
| 2026-04-28 17:04 | 3.07668 | -51.29311 | 36023 ft | 463 kts | 328° |
| 2026-04-28 17:05 | 3.15785 | -51.34560 | 36018 ft | 463 kts | 328° |
| 2026-04-28 17:06 | 3.23902 | -51.39808 | 36023 ft | 463 kts | 328° |
| 2026-04-28 17:06 | 3.32033 | -51.45062 | 35419 ft | 468 kts | 328° |
| 2026-04-28 17:07 | 3.33845 | -51.46235 | 34996 ft | 468 kts | 328° |
| 2026-04-28 17:07 | 3.36571 | -51.48002 | 34451 ft | 466 kts | 328° |
| 2026-04-28 17:07 | 3.39285 | -51.49759 | 33856 ft | 465 kts | 328° |
| 2026-04-28 17:07 | 3.41995 | -51.51513 | 33259 ft | 462 kts | 329° |
| 2026-04-28 17:08 | 3.44686 | -51.53257 | 32694 ft | 460 kts | 329° |
| 2026-04-28 17:08 | 3.47363 | -51.54992 | 32135 ft | 457 kts | 329° |
| 2026-04-28 17:08 | 3.50028 | -51.56719 | 31573 ft | 455 kts | 329° |
| 2026-04-28 17:08 | 3.52628 | -51.58402 | 31032 ft | 453 kts | 329° |
| 2026-04-28 17:09 | 3.55294 | -51.60127 | 30482 ft | 452 kts | 329° |
| 2026-04-28 17:09 | 3.57929 | -51.61831 | 29905 ft | 450 kts | 330° |
| 2026-04-28 17:09 | 3.60553 | -51.63528 | 29331 ft | 447 kts | 330° |
| 2026-04-28 17:09 | 3.63154 | -51.65208 | 28806 ft | 443 kts | 330° |
| 2026-04-28 17:10 | 3.65731 | -51.66875 | 28294 ft | 439 kts | 330° |
| 2026-04-28 17:10 | 3.68281 | -51.68528 | 27786 ft | 435 kts | 330° |
| 2026-04-28 17:10 | 3.70814 | -51.70169 | 27290 ft | 432 kts | 330° |
| 2026-04-28 17:10 | 3.73325 | -51.71794 | 26803 ft | 428 kts | 330° |
| 2026-04-28 17:11 | 3.75820 | -51.73407 | 26315 ft | 425 kts | 330° |
| 2026-04-28 17:11 | 3.78299 | -51.75008 | 25830 ft | 423 kts | 330° |
| 2026-04-28 17:11 | 3.80769 | -51.76603 | 25342 ft | 422 kts | 330° |
| 2026-04-28 17:11 | 3.83236 | -51.78197 | 24843 ft | 421 kts | 330° |
| 2026-04-28 17:12 | 3.85695 | -51.79788 | 24344 ft | 421 kts | 330° |
| 2026-04-28 17:12 | 3.88165 | -51.81349 | 23834 ft | 419 kts | 331° |
| 2026-04-28 17:12 | 3.90659 | -51.82853 | 23288 ft | 419 kts | 332° |
| 2026-04-28 17:12 | 3.93166 | -51.84321 | 22845 ft | 414 kts | 333° |
| 2026-04-28 17:13 | 3.95657 | -51.85763 | 22335 ft | 413 kts | 333° |
| 2026-04-28 17:13 | 3.98121 | -51.87191 | 22000 ft | 406 kts | 333° |
| 2026-04-28 17:13 | 4.00560 | -51.88615 | 21507 ft | 405 kts | 332° |
| 2026-04-28 17:13 | 4.02978 | -51.90039 | 21063 ft | 402 kts | 332° |
| 2026-04-28 17:14 | 4.05373 | -51.91457 | 20639 ft | 398 kts | 332° |
| 2026-04-28 17:14 | 4.07747 | -51.92865 | 20221 ft | 395 kts | 332° |
| 2026-04-28 17:14 | 4.10099 | -51.94262 | 19805 ft | 392 kts | 332° |
| 2026-04-28 17:14 | 4.12434 | -51.95647 | 19405 ft | 388 kts | 332° |
| 2026-04-28 17:15 | 4.14714 | -51.97000 | 19264 ft | 373 kts | 332° |
| 2026-04-28 17:15 | 4.16910 | -51.98305 | 18978 ft | 362 kts | 332° |
| 2026-04-28 17:15 | 4.19057 | -51.99577 | 18556 ft | 356 kts | 332° |
| 2026-04-28 17:15 | 4.21174 | -52.00830 | 17911 ft | 351 kts | 332° |
| 2026-04-28 17:16 | 4.23239 | -52.02113 | 17219 ft | 348 kts | 325° |
| 2026-04-28 17:16 | 4.25029 | -52.03739 | 16545 ft | 347 kts | 313° |
| 2026-04-28 17:16 | 4.26582 | -52.05576 | 15905 ft | 344 kts | 311° |
| 2026-04-28 17:16 | 4.28115 | -52.07394 | 15280 ft | 340 kts | 312° |
| 2026-04-28 17:17 | 4.29641 | -52.09199 | 14635 ft | 338 kts | 312° |
| 2026-04-28 17:17 | 4.31137 | -52.10959 | 14084 ft | 333 kts | 312° |
| 2026-04-28 17:17 | 4.32633 | -52.12721 | 13433 ft | 331 kts | 312° |
| 2026-04-28 17:17 | 4.34118 | -52.14472 | 12743 ft | 329 kts | 311° |
| 2026-04-28 17:18 | 4.35586 | -52.16204 | 12138 ft | 323 kts | 312° |
| 2026-04-28 17:18 | 4.37033 | -52.17912 | 11486 ft | 322 kts | 312° |
| 2026-04-28 17:18 | 4.38486 | -52.19624 | 11074 ft | 322 kts | 312° |
| 2026-04-28 17:18 | 4.39928 | -52.21325 | 10752 ft | 319 kts | 313° |
| 2026-04-28 17:19 | 4.41362 | -52.23016 | 10404 ft | 317 kts | 312° |
| 2026-04-28 17:19 | 4.42780 | -52.24692 | 10076 ft | 314 kts | 312° |
| 2026-04-28 17:19 | 4.44174 | -52.26340 | 9874 ft | 307 kts | 313° |
| 2026-04-28 17:19 | 4.45550 | -52.27966 | 9507 ft | 305 kts | 313° |
| 2026-04-28 17:20 | 4.46918 | -52.29580 | 9130 ft | 303 kts | 313° |
| 2026-04-28 17:20 | 4.47836 | -52.30663 | 8888 ft | 301 kts | 312° |
| 2026-04-28 17:20 | 4.49622 | -52.32770 | 8394 ft | 299 kts | 313° |
| 2026-04-28 17:20 | 4.50967 | -52.34357 | 7993 ft | 298 kts | 313° |
| 2026-04-28 17:21 | 4.52302 | -52.35936 | 7602 ft | 296 kts | 313° |
| 2026-04-28 17:21 | 4.53631 | -52.37509 | 7211 ft | 295 kts | 313° |
| 2026-04-28 17:21 | 4.54955 | -52.39074 | 6846 ft | 294 kts | 312° |
| 2026-04-28 17:22 | 4.57583 | -52.42174 | 6101 ft | 291 kts | 313° |
| 2026-04-28 17:22 | 4.58890 | -52.43716 | 5714 ft | 289 kts | 313° |
| 2026-04-28 17:22 | 4.60186 | -52.45246 | 5339 ft | 287 kts | 313° |
| 2026-04-28 17:23 | 4.62728 | -52.48250 | 4817 ft | 273 kts | 312° |
| 2026-04-28 17:23 | 4.63926 | -52.49668 | 4691 ft | 261 kts | 313° |
| 2026-04-28 17:23 | 4.65087 | -52.51015 | 4533 ft | 251 kts | 318° |
| 2026-04-28 17:23 | 4.66453 | -52.52049 | 4220 ft | 244 kts | 336° |
| 2026-04-28 17:24 | 4.67990 | -52.52764 | 3874 ft | 243 kts | 340° |
| 2026-04-28 17:24 | 4.69531 | -52.53464 | 3572 ft | 243 kts | 339° |
| 2026-04-28 17:24 | 4.71083 | -52.54092 | 3281 ft | 237 kts | 352° |
| 2026-04-28 17:24 | 4.72677 | -52.54025 | 2944 ft | 227 kts | 23° |
| 2026-04-28 17:25 | 4.73964 | -52.53205 | 2588 ft | 218 kts | 52° |
| 2026-04-28 17:25 | 4.75342 | -52.50571 | 2075 ft | 206 kts | 66° |
| 2026-04-28 17:25 | 4.75916 | -52.49325 | 2013 ft | 186 kts | 67° |
| 2026-04-28 17:26 | 4.76444 | -52.48178 | 2035 ft | 177 kts | 65° |
| 2026-04-28 17:26 | 4.76958 | -52.47063 | 1934 ft | 176 kts | 67° |
| 2026-04-28 17:26 | 4.77464 | -52.45967 | 1743 ft | 167 kts | 66° |
| 2026-04-28 17:26 | 4.77934 | -52.44946 | 1533 ft | 155 kts | 66° |
| 2026-04-28 17:27 | 4.78363 | -52.44019 | 1353 ft | 139 kts | 67° |
| 2026-04-28 17:27 | 4.78765 | -52.43145 | 1201 ft | 138 kts | 67° |
| 2026-04-28 17:27 | 4.79168 | -52.42270 | 1006 ft | 141 kts | 68° |
| 2026-04-28 17:27 | 4.79570 | -52.41397 | 834 ft | 137 kts | 65° |
| 2026-04-28 17:28 | 4.79979 | -52.40521 | 722 ft | 140 kts | 66° |
| 2026-04-28 17:28 | 4.80763 | -52.38806 | 367 ft | 133 kts | 65° |
| 2026-04-28 17:28 | 4.81155 | -52.37961 | 189 ft | 134 kts | 65° |
| 2026-04-28 17:29 | 4.81540 | -52.37116 | 51 ft | 131 kts | 66° |
| 2026-04-28 17:29 | 4.81890 | -52.36349 | 32 ft | 108 kts | 66° |
| 2026-04-28 17:29 | 4.82119 | -52.35853 | 29 ft | 53 kts | 63° |
| 2026-04-28 17:30 | 4.82256 | -52.35487 | 30 ft | 9 kts | 80° |
| 2026-04-28 17:30 | 4.82274 | -52.35524 | 30 ft | 4 kts | 243° |
| 2026-04-28 17:30 | 4.82263 | -52.35549 | 30 ft | 4 kts | 246° |
| 2026-04-28 17:31 | 4.82253 | -52.35571 | 30 ft | 3 kts | 246° |
| 2026-04-28 17:31 | 4.82208 | -52.35669 | 29 ft | 13 kts | 245° |
| 2026-04-28 17:32 | 4.82141 | -52.35820 | 29 ft | 11 kts | 246° |
| 2026-04-28 17:32 | 4.82113 | -52.35886 | 29 ft | 10 kts | 247° |
| 2026-04-28 17:32 | 4.82114 | -52.35943 | 29 ft | 8 kts | 309° |
| 2026-04-28 17:32 | 4.82142 | -52.35986 | 29 ft | 7 kts | 301° |
| 2026-04-28 17:33 | 4.82166 | -52.36025 | 29 ft | 8 kts | 301° |
| 2026-04-28 17:33 | 4.82184 | -52.36115 | 29 ft | 14 kts | 243° |
| 2026-04-28 17:33 | 4.82148 | -52.36191 | 29 ft | 11 kts | 246° |
| 2026-04-28 17:33 | 4.82124 | -52.36233 | 29 ft | 10 kts | 238° |
| 2026-04-28 17:34 | 4.82085 | -52.36312 | 29 ft | 6 kts | 246° |
| 2026-04-28 17:34 | 4.82099 | -52.36341 | 29 ft | 5 kts | 324° |
| 2026-04-28 17:34 | 4.82128 | -52.36355 | 29 ft | 4 kts | 335° |
| 2026-04-28 17:34 | 4.82153 | -52.36367 | 29 ft | 4 kts | 335° |
| 2026-04-28 17:35 | 4.82154 | -52.36367 | 29 ft | 0 kts | 335° |